createdAt,value
2023-05-22T00:02:11.967Z,62.30
2023-05-22T00:04:40.572Z,62.20
2023-05-22T00:07:07.658Z,62.30
2023-05-22T00:09:34.875Z,62.40
2023-05-22T00:12:01.892Z,62.40
2023-05-22T00:14:29.039Z,62.60
2023-05-22T00:16:56.661Z,62.60
2023-05-22T00:19:23.952Z,62.60
2023-05-22T00:21:51.814Z,62.60
2023-05-22T00:24:18.912Z,62.60
2023-05-22T00:26:45.974Z,62.60
2023-05-22T00:29:15.052Z,62.80
2023-05-22T00:31:42.081Z,62.90
2023-05-22T00:34:09.049Z,62.90
2023-05-22T00:36:36.136Z,62.90
2023-05-22T00:39:03.170Z,63.00
2023-05-22T00:41:30.678Z,63.00
2023-05-22T00:43:57.755Z,63.00
2023-05-22T00:46:24.963Z,63.00
2023-05-22T00:48:52.884Z,63.00
2023-05-22T00:51:22.947Z,63.00
2023-05-22T00:53:50.512Z,63.00
2023-05-22T00:56:18.724Z,63.00
2023-05-22T00:58:46.098Z,63.00
2023-05-22T01:01:13.401Z,63.10
2023-05-22T01:03:45.576Z,63.20
2023-05-22T01:06:14.221Z,63.30
2023-05-22T01:08:42.328Z,63.30
2023-05-22T01:11:18.287Z,63.40
2023-05-22T01:13:51.196Z,63.60
2023-05-22T01:16:25.462Z,63.60
2023-05-22T01:18:58.521Z,63.80
2023-05-22T01:21:39.240Z,64.00
2023-05-22T01:24:12.136Z,64.10
2023-05-22T01:27:02.047Z,64.30
2023-05-22T01:29:32.303Z,64.40
2023-05-22T01:32:00.670Z,64.50
2023-05-22T01:34:28.728Z,64.70
2023-05-22T01:36:56.610Z,64.80
2023-05-22T01:39:24.779Z,64.80
2023-05-22T01:41:52.167Z,64.90
2023-05-22T01:44:19.208Z,65.00
2023-05-22T01:46:46.403Z,65.00
2023-05-22T01:49:16.151Z,65.10
2023-05-22T01:51:53.132Z,65.10
2023-05-22T01:54:25.123Z,65.20
2023-05-22T01:57:12.390Z,65.30
2023-05-22T01:59:48.654Z,65.30
2023-05-22T02:02:18.053Z,65.30
2023-05-22T02:04:57.114Z,65.40
2023-05-22T02:07:25.323Z,65.30
2023-05-22T02:09:54.288Z,65.30
2023-05-22T02:12:22.179Z,65.30
2023-05-22T02:14:49.522Z,65.30
2023-05-22T02:17:18.312Z,65.40
2023-05-22T02:19:45.501Z,65.50
2023-05-22T02:22:15.385Z,65.60
2023-05-22T02:24:44.470Z,65.60
2023-05-22T02:27:12.108Z,65.70
2023-05-22T02:29:39.660Z,65.80
2023-05-22T02:32:06.824Z,65.80
2023-05-22T02:34:33.908Z,65.80
2023-05-22T02:37:04.089Z,65.90
2023-05-22T02:39:31.096Z,66.00
2023-05-22T02:41:58.329Z,66.10
2023-05-22T02:44:25.377Z,66.10
2023-05-22T02:46:52.608Z,66.10
2023-05-22T02:49:20.322Z,66.20
2023-05-22T02:51:48.012Z,66.20
2023-05-22T02:54:16.368Z,66.30
2023-05-22T02:56:43.990Z,66.70
2023-05-22T02:59:11.469Z,67.00
2023-05-22T03:01:39.854Z,67.20
2023-05-22T03:04:07.041Z,67.10
2023-05-22T03:06:35.604Z,67.20
2023-05-22T03:09:04.509Z,67.30
2023-05-22T03:11:32.061Z,67.30
2023-05-22T03:13:59.069Z,67.40
2023-05-22T03:16:27.034Z,67.50
2023-05-22T03:19:10.592Z,67.60
2023-05-22T03:21:37.626Z,67.80
2023-05-22T03:24:04.816Z,67.90
2023-05-22T03:26:31.867Z,67.80
2023-05-22T03:28:59.081Z,67.90
2023-05-22T03:31:27.460Z,67.90
2023-05-22T03:33:54.508Z,68.00
2023-05-22T03:36:21.907Z,68.10
2023-05-22T03:38:49.294Z,68.10
2023-05-22T03:41:16.310Z,68.10
2023-05-22T03:43:45.055Z,68.20
2023-05-22T03:46:12.371Z,68.30
2023-05-22T03:48:39.584Z,68.50
2023-05-22T03:51:06.719Z,68.80
2023-05-22T03:53:33.671Z,68.80
2023-05-22T03:56:00.727Z,69.00
2023-05-22T03:58:27.869Z,69.10
2023-05-22T04:00:55.696Z,69.10
2023-05-22T04:03:23.171Z,69.20
2023-05-22T04:05:50.389Z,69.20
2023-05-22T04:08:17.751Z,69.20
2023-05-22T04:10:46.829Z,69.30
2023-05-22T04:13:16.736Z,69.40
2023-05-22T04:15:46.065Z,69.50
2023-05-22T04:18:14.052Z,69.50
2023-05-22T04:20:41.324Z,69.50
2023-05-22T04:23:08.575Z,69.60
2023-05-22T04:25:36.662Z,69.60
2023-05-22T04:28:04.463Z,69.70
2023-05-22T04:30:34.251Z,69.80
2023-05-22T04:33:01.878Z,69.90
2023-05-22T04:35:29.766Z,69.90
2023-05-22T04:37:57.231Z,70.00
2023-05-22T04:40:24.168Z,70.00
2023-05-22T04:42:54.390Z,70.00
2023-05-22T04:45:25.569Z,69.90
2023-05-22T04:47:53.315Z,70.00
2023-05-22T04:50:20.930Z,70.00
2023-05-22T04:52:48.470Z,70.10
2023-05-22T04:55:16.480Z,70.10
2023-05-22T04:57:45.368Z,70.00
2023-05-22T05:00:14.519Z,70.00
2023-05-22T05:02:42.070Z,70.00
2023-05-22T05:05:09.262Z,70.00
2023-05-22T05:07:39.654Z,70.10
2023-05-22T05:10:07.589Z,70.20
2023-05-22T05:12:34.820Z,70.30
2023-05-22T05:15:02.228Z,70.20
2023-05-22T05:17:29.319Z,70.30
2023-05-22T05:19:57.374Z,70.30
2023-05-22T05:22:27.085Z,70.30
2023-05-22T05:24:54.441Z,70.40
2023-05-22T05:27:21.510Z,70.30
2023-05-22T05:29:48.573Z,70.20
2023-05-22T05:32:16.403Z,70.10
2023-05-22T05:34:43.618Z,70.10
2023-05-22T05:37:10.732Z,70.00
2023-05-22T05:39:37.690Z,70.00
2023-05-22T05:42:04.809Z,70.00
2023-05-22T05:44:31.977Z,69.80
2023-05-22T05:46:58.964Z,69.90
2023-05-22T05:49:25.960Z,69.90
2023-05-22T05:51:53.068Z,69.80
2023-05-22T05:54:20.122Z,69.90
2023-05-22T05:56:47.519Z,70.00
2023-05-22T05:59:14.703Z,69.60
2023-05-22T06:01:45.718Z,69.40
2023-05-22T06:04:13.367Z,69.50
2023-05-22T06:06:40.471Z,69.60
2023-05-22T06:09:07.823Z,69.70
2023-05-22T06:11:34.988Z,69.80
2023-05-22T06:14:07.035Z,69.80
2023-05-22T06:16:34.370Z,69.80
2023-05-22T06:19:01.775Z,69.30
2023-05-22T06:21:28.965Z,69.00
2023-05-22T06:23:56.016Z,69.20
2023-05-22T06:26:23.872Z,69.30
2023-05-22T06:28:52.324Z,69.10
2023-05-22T06:31:19.808Z,69.10
2023-05-22T06:33:47.144Z,69.10
2023-05-22T06:36:14.705Z,69.00
2023-05-22T06:38:41.986Z,68.60
2023-05-22T06:41:10.641Z,68.50
2023-05-22T06:43:37.920Z,68.40
2023-05-22T06:46:05.802Z,68.60
2023-05-22T06:48:36.347Z,68.60
2023-05-22T06:51:03.417Z,68.30
2023-05-22T06:53:30.780Z,68.30
2023-05-22T06:55:57.922Z,68.50
2023-05-22T06:58:25.060Z,68.20
2023-05-22T07:00:52.330Z,67.90
2023-05-22T07:03:20.201Z,67.50
2023-05-22T07:05:47.831Z,67.60
2023-05-22T07:08:15.025Z,67.80
2023-05-22T07:10:42.107Z,68.00
2023-05-22T07:13:11.920Z,68.00
2023-05-22T07:15:39.033Z,67.50
2023-05-22T07:18:06.899Z,67.30
2023-05-22T07:20:34.222Z,67.50
2023-05-22T07:23:01.207Z,67.80
2023-05-22T07:25:28.694Z,67.40
2023-05-22T07:27:56.155Z,67.20
2023-05-22T07:30:25.786Z,66.90
2023-05-22T07:32:53.000Z,66.80
2023-05-22T07:35:20.331Z,66.50
2023-05-22T07:37:47.833Z,66.20
2023-05-22T07:40:15.024Z,66.20
2023-05-22T07:42:42.209Z,66.10
2023-05-22T07:45:09.948Z,66.20
2023-05-22T07:47:36.918Z,66.40
2023-05-22T07:50:07.646Z,66.40
2023-05-22T07:52:34.827Z,66.60
2023-05-22T07:55:01.895Z,66.80
2023-05-22T07:57:30.001Z,66.90
2023-05-22T07:59:57.265Z,66.40
2023-05-22T08:02:24.528Z,66.20
2023-05-22T08:04:52.012Z,66.00
2023-05-22T08:07:19.202Z,65.30
2023-05-22T08:09:47.638Z,65.30
2023-05-22T08:12:14.799Z,65.00
2023-05-22T08:14:41.971Z,64.70
2023-05-22T08:17:08.976Z,64.70
2023-05-22T08:19:36.651Z,64.70
2023-05-22T08:22:03.901Z,64.70
2023-05-22T08:24:31.678Z,64.70
2023-05-22T08:26:58.967Z,64.20
2023-05-22T08:29:26.205Z,64.10
2023-05-22T08:31:54.255Z,63.90
2023-05-22T08:34:21.562Z,64.00
2023-05-22T08:36:50.077Z,63.60
2023-05-22T08:39:19.396Z,62.70
2023-05-22T08:41:47.833Z,62.10
2023-05-22T08:44:14.946Z,62.00
2023-05-22T08:46:46.925Z,62.30
2023-05-22T08:49:14.505Z,62.10
2023-05-22T08:51:46.664Z,62.30
2023-05-22T08:54:16.483Z,61.70
2023-05-22T08:56:53.292Z,60.60
2023-05-22T08:59:23.670Z,59.00
2023-05-22T09:01:52.723Z,58.00
2023-05-22T09:04:23.352Z,57.80
2023-05-22T09:06:50.898Z,57.50
2023-05-22T09:09:18.090Z,57.10
2023-05-22T09:11:47.875Z,54.80
2023-05-22T09:14:16.337Z,54.70
2023-05-22T09:16:47.258Z,55.50
2023-05-22T09:19:15.980Z,55.40
2023-05-22T09:21:44.727Z,54.00
2023-05-22T09:24:12.254Z,53.30
2023-05-22T09:26:39.887Z,53.90
2023-05-22T09:29:07.633Z,52.20
2023-05-22T09:31:42.057Z,52.30
2023-05-22T09:34:10.573Z,52.50
2023-05-22T09:36:37.717Z,52.80
2023-05-22T09:39:05.368Z,52.90
2023-05-22T09:41:37.481Z,53.00
2023-05-22T09:44:12.118Z,52.70
2023-05-22T09:46:43.410Z,52.40
2023-05-22T09:49:13.329Z,51.10
2023-05-22T09:51:44.567Z,51.10
2023-05-22T09:54:12.736Z,50.30
2023-05-22T09:56:40.884Z,49.80
2023-05-22T09:59:09.977Z,49.80
2023-05-22T10:01:39.122Z,48.70
2023-05-22T10:04:09.110Z,46.90
2023-05-22T10:06:37.376Z,47.70
2023-05-22T10:09:07.375Z,47.60
2023-05-22T10:11:35.389Z,47.00
2023-05-22T10:14:02.916Z,47.40
2023-05-22T10:16:30.695Z,47.20
2023-05-22T10:19:01.383Z,46.80
2023-05-22T10:21:30.082Z,46.70
2023-05-22T10:24:01.140Z,45.90
2023-05-22T10:26:29.085Z,46.20
2023-05-22T10:29:00.260Z,46.80
2023-05-22T10:31:30.537Z,47.10
2023-05-22T10:34:01.453Z,47.20
2023-05-22T10:36:48.336Z,46.50
2023-05-22T10:39:34.985Z,46.50
2023-05-22T10:42:02.479Z,46.30
2023-05-22T10:44:29.592Z,46.40
2023-05-22T10:46:56.705Z,45.90
2023-05-22T10:49:24.229Z,45.70
2023-05-22T10:52:01.946Z,45.50
2023-05-22T10:54:42.887Z,45.10
2023-05-22T10:57:12.013Z,44.60
2023-05-22T10:59:41.784Z,44.40
2023-05-22T11:02:31.529Z,43.80
2023-05-22T11:05:14.349Z,43.90
2023-05-22T11:07:41.883Z,44.10
2023-05-22T11:10:08.972Z,44.00
2023-05-22T11:12:37.710Z,43.40
2023-05-22T11:15:06.525Z,43.60
2023-05-22T11:17:34.377Z,43.60
2023-05-22T11:20:02.875Z,43.70
2023-05-22T11:22:34.666Z,43.60
2023-05-22T11:25:04.549Z,43.10
2023-05-22T11:27:32.013Z,42.70
2023-05-22T11:29:59.711Z,42.80
2023-05-22T11:32:27.549Z,42.70
2023-05-22T11:34:56.343Z,42.50
2023-05-22T11:37:23.930Z,42.40
2023-05-22T11:39:56.352Z,42.60
2023-05-22T11:42:23.691Z,42.90
2023-05-22T11:44:51.062Z,43.10
2023-05-22T11:47:18.068Z,43.10
2023-05-22T11:49:48.432Z,43.00
2023-05-22T11:52:16.711Z,42.90
2023-05-22T11:54:50.041Z,42.80
2023-05-22T11:57:17.166Z,42.90
2023-05-22T11:59:47.375Z,42.60
2023-05-22T12:02:22.195Z,42.10
2023-05-22T12:04:54.094Z,42.20
2023-05-22T12:07:22.777Z,42.30
2023-05-22T12:09:50.203Z,42.90
2023-05-22T12:12:17.340Z,42.90
2023-05-22T12:14:45.028Z,42.80
2023-05-22T12:17:16.554Z,42.60
2023-05-22T12:19:44.902Z,42.50
2023-05-22T12:22:15.271Z,42.40
2023-05-22T12:24:43.117Z,41.60
2023-05-22T12:27:13.096Z,40.70
2023-05-22T12:29:40.872Z,39.30
2023-05-22T12:32:09.552Z,39.80
2023-05-22T12:34:43.296Z,40.30
2023-05-22T12:37:20.658Z,40.20
2023-05-22T12:39:54.437Z,40.00
2023-05-22T12:42:21.668Z,40.30
2023-05-22T12:44:48.740Z,40.60
2023-05-22T12:47:15.947Z,40.60
2023-05-22T12:49:42.998Z,40.30
2023-05-22T12:52:10.021Z,39.80
2023-05-22T12:54:37.149Z,39.90
2023-05-22T12:57:04.475Z,39.10
2023-05-22T12:59:32.066Z,38.30
2023-05-22T13:02:02.530Z,38.60
2023-05-22T13:04:30.102Z,39.30
2023-05-22T13:06:57.321Z,39.30
2023-05-22T13:09:24.382Z,39.50
2023-05-22T13:11:51.898Z,39.30
2023-05-22T13:14:19.168Z,39.00
2023-05-22T13:16:46.226Z,38.80
2023-05-22T13:19:13.438Z,38.70
2023-05-22T13:21:40.838Z,38.50
2023-05-22T13:24:08.695Z,38.30
2023-05-22T13:26:36.438Z,38.20
2023-05-22T13:29:03.616Z,37.60
2023-05-22T13:31:33.552Z,37.30
2023-05-22T13:34:03.112Z,37.50
2023-05-22T13:36:31.632Z,37.60
2023-05-22T13:38:59.137Z,37.80
2023-05-22T13:41:26.465Z,37.20
2023-05-22T13:43:53.586Z,37.20
2023-05-22T13:46:22.253Z,37.30
2023-05-22T13:48:49.537Z,37.10
2023-05-22T13:51:17.223Z,37.50
2023-05-22T13:53:44.473Z,38.40
2023-05-22T13:56:12.215Z,39.10
2023-05-22T13:58:39.341Z,39.70
2023-05-22T14:01:07.710Z,40.30
2023-05-22T14:03:35.176Z,40.60
2023-05-22T14:06:02.559Z,40.90
2023-05-22T14:08:30.168Z,41.00
2023-05-22T14:10:57.629Z,41.10
2023-05-22T14:13:25.133Z,41.30
2023-05-22T14:15:52.614Z,41.50
2023-05-22T14:18:19.764Z,41.80
2023-05-22T14:20:49.983Z,42.10
2023-05-22T14:23:20.456Z,42.00
2023-05-22T14:25:53.833Z,41.60
2023-05-22T14:28:20.906Z,42.00
2023-05-22T14:30:53.306Z,42.60
2023-05-22T14:33:20.648Z,42.90
2023-05-22T14:35:51.927Z,43.50
2023-05-22T14:38:19.328Z,44.20
2023-05-22T14:40:48.931Z,44.30
2023-05-22T14:43:16.178Z,44.80
2023-05-22T14:45:44.090Z,44.90
2023-05-22T14:48:11.936Z,45.10
2023-05-22T14:50:39.252Z,45.30
2023-05-22T14:53:06.463Z,45.10
2023-05-22T14:55:33.833Z,45.30
2023-05-22T14:58:00.927Z,45.30
2023-05-22T15:00:28.647Z,45.10
2023-05-22T15:02:55.961Z,45.40
2023-05-22T15:05:23.473Z,45.30
2023-05-22T15:10:18.455Z,44.80
2023-05-22T15:12:47.551Z,45.10
2023-05-22T15:15:14.596Z,45.30
2023-05-22T15:17:42.905Z,45.50
2023-05-22T15:20:10.769Z,45.60
2023-05-22T15:22:37.829Z,45.50
2023-05-22T15:25:05.877Z,44.90
2023-05-22T15:27:35.340Z,44.60
2023-05-22T15:30:02.968Z,44.50
2023-05-22T15:32:31.947Z,44.00
2023-05-22T15:34:58.979Z,43.80
2023-05-22T15:37:26.719Z,44.10
2023-05-22T15:39:53.982Z,44.30
2023-05-22T15:42:22.131Z,44.50
2023-05-22T15:44:49.262Z,44.70
2023-05-22T15:47:17.105Z,44.80
2023-05-22T15:49:44.366Z,44.70
2023-05-22T15:52:11.629Z,44.40
2023-05-22T15:54:38.679Z,44.40
2023-05-22T15:57:05.767Z,44.30
2023-05-22T15:59:32.791Z,44.30
2023-05-22T16:01:59.893Z,44.40
2023-05-22T16:04:26.915Z,44.40
2023-05-22T16:06:53.876Z,44.20
2023-05-22T16:09:21.057Z,44.30
2023-05-22T16:11:48.079Z,44.40
2023-05-22T16:14:15.192Z,44.00
2023-05-22T16:16:42.338Z,44.20
2023-05-22T16:19:10.475Z,44.30
2023-05-22T16:21:37.612Z,44.40
2023-05-22T16:24:06.655Z,44.30
2023-05-22T16:26:33.742Z,44.40
2023-05-22T16:29:01.139Z,44.40
2023-05-22T16:31:28.968Z,44.30
2023-05-22T16:33:56.046Z,44.30
2023-05-22T16:36:25.135Z,44.60
2023-05-22T16:38:53.520Z,44.70
2023-05-22T16:41:20.577Z,44.70
2023-05-22T16:43:48.461Z,44.90
2023-05-22T16:46:16.047Z,45.10
2023-05-22T16:48:43.039Z,45.50
2023-05-22T16:51:10.710Z,46.00
2023-05-22T16:53:39.004Z,46.30
2023-05-22T16:56:06.457Z,46.60
2023-05-22T16:58:33.671Z,47.00
2023-05-22T17:01:01.217Z,47.30
2023-05-22T17:03:31.274Z,47.50
2023-05-22T17:05:58.531Z,47.60
2023-05-22T17:08:28.492Z,47.90
2023-05-22T17:10:56.001Z,48.20
2023-05-22T17:13:22.924Z,48.40
2023-05-22T17:15:50.286Z,48.50
2023-05-22T17:18:20.023Z,48.70
2023-05-22T17:20:47.648Z,48.90
2023-05-22T17:23:14.800Z,49.10
2023-05-22T17:25:42.090Z,49.30
2023-05-22T17:28:09.533Z,49.50
2023-05-22T17:30:36.627Z,49.60
2023-05-22T17:33:04.027Z,49.80
2023-05-22T17:35:31.170Z,49.90
2023-05-22T17:37:58.316Z,50.10
2023-05-22T17:40:40.038Z,50.30
2023-05-22T17:43:11.725Z,50.40
2023-05-22T17:45:38.945Z,50.60
2023-05-22T17:48:06.948Z,50.70
2023-05-22T17:50:34.200Z,50.70
2023-05-22T17:53:01.786Z,50.80
2023-05-22T17:55:28.975Z,50.80
2023-05-22T17:57:56.376Z,50.60
2023-05-22T18:00:23.663Z,50.30
2023-05-22T18:02:50.914Z,50.30
2023-05-22T18:05:18.415Z,50.40
2023-05-22T18:07:45.636Z,50.40
2023-05-22T18:10:12.760Z,50.40
2023-05-22T18:12:40.035Z,50.40
2023-05-22T18:15:09.888Z,50.40
2023-05-22T18:17:37.088Z,50.40
2023-05-22T18:20:07.686Z,50.50
2023-05-22T18:22:37.309Z,50.50
2023-05-22T18:25:07.741Z,50.60
2023-05-22T18:27:35.102Z,50.50
2023-05-22T18:30:02.680Z,50.60
2023-05-22T18:32:30.067Z,50.70
2023-05-22T18:34:58.820Z,50.80
2023-05-22T18:37:26.446Z,50.80
2023-05-22T18:39:54.034Z,51.00
2023-05-22T18:42:22.287Z,51.10
2023-05-22T18:44:51.909Z,51.30
2023-05-22T18:47:18.961Z,51.40
2023-05-22T18:49:46.278Z,51.60
2023-05-22T18:52:13.557Z,51.70
2023-05-22T18:54:41.093Z,51.90
2023-05-22T18:57:08.371Z,52.10
2023-05-22T18:59:35.614Z,52.50
2023-05-22T19:02:02.769Z,52.80
2023-05-22T19:04:29.858Z,53.10
2023-05-22T19:06:57.034Z,53.40
2023-05-22T19:09:24.856Z,53.60
2023-05-22T19:11:52.462Z,53.80
2023-05-22T19:14:22.726Z,54.20
2023-05-22T19:16:50.072Z,54.50
2023-05-22T19:19:17.348Z,54.70
2023-05-22T19:21:44.599Z,55.00
2023-05-22T19:24:11.716Z,55.10
2023-05-22T19:26:38.739Z,55.20
2023-05-22T19:29:07.569Z,55.40
2023-05-22T19:31:34.700Z,55.70
2023-05-22T19:34:02.013Z,55.90
2023-05-22T19:36:29.089Z,56.00
2023-05-22T19:38:56.119Z,56.00
2023-05-22T19:41:23.933Z,56.20
2023-05-22T19:43:52.173Z,56.30
2023-05-22T19:46:22.873Z,56.50
2023-05-22T19:48:53.583Z,56.70
2023-05-22T19:51:21.742Z,56.80
2023-05-22T19:53:52.007Z,57.00
2023-05-22T19:56:22.108Z,56.90
2023-05-22T19:58:52.266Z,57.20
2023-05-22T20:01:22.166Z,57.30
2023-05-22T20:03:52.402Z,57.50
2023-05-22T20:06:21.983Z,57.60
2023-05-22T20:08:49.112Z,57.80
2023-05-22T20:11:16.169Z,57.90
2023-05-22T20:13:43.136Z,57.90
2023-05-22T20:16:12.919Z,58.00
2023-05-22T20:18:41.203Z,58.30
2023-05-22T20:21:08.514Z,58.50
2023-05-22T20:23:35.679Z,58.60
2023-05-22T20:26:02.779Z,58.70
2023-05-22T20:28:29.840Z,58.80
2023-05-22T20:30:56.909Z,58.90
2023-05-22T20:33:24.611Z,58.90
2023-05-22T20:35:53.339Z,58.90
2023-05-22T20:38:20.482Z,58.90
2023-05-22T20:40:47.804Z,58.90
2023-05-22T20:43:14.902Z,58.90
2023-05-22T20:45:45.981Z,59.10
2023-05-22T20:48:14.015Z,59.20
2023-05-22T20:50:42.414Z,59.10
2023-05-22T20:53:09.507Z,59.40
2023-05-22T20:55:37.560Z,59.40
2023-05-22T20:58:04.937Z,59.60
2023-05-22T21:00:31.936Z,59.80
2023-05-22T21:03:01.336Z,59.90
2023-05-22T21:05:28.432Z,60.10
2023-05-22T21:07:55.449Z,60.30
2023-05-22T21:10:22.486Z,60.50
2023-05-22T21:12:49.515Z,60.70
2023-05-22T21:15:16.584Z,60.90
2023-05-22T21:17:44.162Z,61.10
2023-05-22T21:20:11.482Z,61.20
2023-05-22T21:22:38.526Z,61.50
2023-05-22T21:25:05.808Z,61.60
2023-05-22T21:27:32.860Z,61.60
2023-05-22T21:29:59.882Z,61.60
2023-05-22T21:32:26.921Z,61.70
2023-05-22T21:34:54.456Z,61.80
2023-05-22T21:37:21.645Z,61.90
2023-05-22T21:39:51.306Z,61.90
2023-05-22T21:42:19.744Z,62.00
2023-05-22T21:44:47.476Z,62.10
2023-05-22T21:47:14.655Z,62.30
2023-05-22T21:49:42.143Z,62.50
2023-05-22T21:52:09.396Z,62.30
2023-05-22T21:54:36.721Z,62.30
2023-05-22T21:57:03.896Z,62.40
2023-05-22T21:59:31.127Z,62.50
2023-05-22T22:01:58.373Z,62.80
2023-05-22T22:04:26.329Z,62.80
2023-05-22T22:06:53.716Z,62.80
2023-05-22T22:09:23.460Z,63.00
2023-05-22T22:11:51.005Z,63.20
2023-05-22T22:14:18.069Z,63.30
2023-05-22T22:16:46.007Z,63.40
2023-05-22T22:19:13.294Z,63.60
2023-05-22T22:21:40.620Z,63.70
2023-05-22T22:24:07.903Z,63.80
2023-05-22T22:26:35.925Z,63.90
2023-05-22T22:29:02.947Z,63.90
2023-05-22T22:31:30.039Z,64.10
2023-05-22T22:33:57.110Z,64.30
2023-05-22T22:36:24.381Z,64.30
2023-05-22T22:38:51.450Z,64.40
2023-05-22T22:41:18.806Z,64.70
2023-05-22T22:43:46.145Z,64.90
2023-05-22T22:46:13.241Z,64.80
2023-05-22T22:48:42.089Z,64.90
2023-05-22T22:51:09.894Z,65.20
2023-05-22T22:53:37.277Z,65.50
2023-05-22T22:56:04.747Z,65.30
2023-05-22T22:58:31.835Z,65.40
2023-05-22T23:00:59.157Z,65.30
2023-05-22T23:03:27.316Z,65.70
2023-05-22T23:05:54.313Z,65.60
2023-05-22T23:08:23.654Z,65.70
2023-05-22T23:10:50.790Z,65.50
2023-05-22T23:13:17.882Z,65.50
2023-05-22T23:15:44.925Z,65.60
2023-05-22T23:18:14.139Z,65.70
2023-05-22T23:21:22.103Z,65.80
2023-05-22T23:23:50.827Z,66.00
2023-05-22T23:26:18.314Z,66.50
2023-05-22T23:28:45.786Z,66.40
2023-05-22T23:31:14.827Z,66.30
2023-05-22T23:33:42.552Z,66.50
2023-05-22T23:36:09.929Z,66.60
2023-05-22T23:38:37.376Z,66.50
2023-05-22T23:41:04.592Z,66.60
2023-05-22T23:43:32.265Z,66.60
2023-05-22T23:46:01.560Z,66.90
2023-05-22T23:48:28.820Z,66.90
2023-05-22T23:50:56.209Z,66.80
2023-05-22T23:53:23.207Z,66.90
2023-05-22T23:55:50.825Z,67.20
2023-05-22T23:58:17.883Z,66.90
